Rochester, Michigan
Current Conditions -  °F | °C
As of 5:35 PM on Monday 20 Oct 2014 (Local Time) from KVLL Reporting Station
Overcast Overcast  
Wind Chill: 58°   Ceiling: 2700
Heat Index: 58°   Visibility: 10mi
Dew Point: 47°   Wind: 3mph
Humidity: 68%   Direction: 250°WSW
Pressure: 29.81"   Gusts: NA
Location:  42.68°N, 83.14°W
Report Text: KVLL 202135Z AUTO 25003KT 10SM BKN027 OVC034 14/08 A2981 RMK AO2 T01420083
Loading
Personal Weather Stations






























Interactive Weather Map
Tropical Storm Tracking
New forecast layout! Learn more

10-Day Weather Forecast

Advertisements
Track Severe Weather on mobile